KBVS Airport Information

Runway Information
Runway 04 Length 3000 ft width 60 ft
Elevation 84 ft Threshold 0 ft Heading 56
Runway 22 Length 3000 ft Width 60 ft
Elevation 97 ft Threshold 0 ft Heading 236
Runway 10 Length 5477 ft width 100 ft
Elevation 144 ft Threshold 0 ft Heading 126
Runway 28 Length 5477 ft Width 100 ft
Elevation 98 ft Threshold 0 ft Heading 306
Airport Frequencies
Type A/D Name WHIDBEY AP Frequency 120.7 MHZ
Type AWOS Name AWOS 3 Frequency 121.125 MHZ
Type UNIC Name CTAF/UNICO Frequency 123.075 MHZ
Airport Navaids
Airport Weather Information & NOTAM
ADDS - METARS form results

(2012 UTC 26 March 2019)
Data provider http://aviationweather.gov/metar/data/
 
METAR text: KBVS 261955Z AUTO 17010G16KT 10SM CLR 14/05 A3009 RMK A01
Conditions at: KBVS (BURLINGTON/MT V , WA, US) observed 1955 UTC 26 March 2019
Temperature: 14.0°C (57°F)
Dewpoint: 5.0°C (41°F) [RH = 55%]
Pressure (altimeter): 30.09 inches Hg (1019.0 mb)
Winds: from the S (170 degrees) at 12 MPH (10 knots; 5.1 m/s)
gusting to 18 MPH (16 knots; 8.2 m/s)
Visibility: 10 or more miles (16+ km)
Ceiling: at least 12,000 feet AGL
Clouds: sky clear below 12,000 feet AGL
Weather: automated observation with no human augmentation;
there may or may not be significant weather present at this time

METAR text: KBVS 261935Z AUTO 17009G17KT 10SM FEW044 14/05 A3010 RMK A01
Conditions at: KBVS (BURLINGTON/MT V , WA, US) observed 1935 UTC 26 March 2019
Temperature: 14.0°C (57°F)
Dewpoint: 5.0°C (41°F) [RH = 55%]
Pressure (altimeter): 30.10 inches Hg (1019.4 mb)
Winds: from the S (170 degrees) at 10 MPH (9 knots; 4.6 m/s)
gusting to 20 MPH (17 knots; 8.7 m/s)
Visibility: 10 or more miles (16+ km)
Ceiling: at least 12,000 feet AGL
Clouds: few clouds at 4400 feet AGL
Weather: automated observation with no human augmentation;
there may or may not be significant weather present at this time

METAR text: KBVS 261915Z AUTO 15009G17KT 120V180 10SM FEW025 SCT032 BKN042 13/06 A3010 RMK A01
Conditions at: KBVS (BURLINGTON/MT V , WA, US) observed 1915 UTC 26 March 2019
Temperature: 13.0°C (55°F)
Dewpoint: 6.0°C (43°F) [RH = 62%]
Pressure (altimeter): 30.10 inches Hg (1019.4 mb)
Winds: from the SSE (150 degrees) at 10 MPH (9 knots; 4.6 m/s)
gusting to 20 MPH (17 knots; 8.7 m/s)
Visibility: 10 or more miles (16+ km)
Ceiling: 4200 feet AGL
Clouds: few clouds at 2500 feet AGL
scattered clouds at 3200 feet AGL
broken clouds at 4200 feet AGL
Weather: automated observation with no human augmentation;
there may or may not be significant weather present at this time